Flight Track Log - Related Links

Times and Time Zones

All times are in EDT time to prevent confusion due to time zone crossing. See the SAS4184 flight status page for this flight to view local times or setup timezone preferences in your user account.

Time Position Orientation Groundspeed Altitude Reporting Facility
EDT Latitude Longitude Course Direction KTS MPH feet Rate Location/Type
Mon 11:33:00 AM 60.5969 5.7016 38° Northeast  Level Estimated
Mon 11:34:00 AM 60.6725 5.8239 38° Northeast  Level Estimated
Mon 11:35:00 AM 60.7480 5.9468 38° Northeast  Level Estimated
Mon 11:36:00 AM 60.8234 6.0702 39° Northeast  Level Estimated
Mon 11:37:00 AM 60.8986 6.1942 39° Northeast  Level Estimated
Mon 11:38:00 AM 60.9738 6.3188 39° Northeast  Level Estimated
Mon 11:39:00 AM 61.0488 6.4440 39° Northeast  Level Estimated
Mon 11:40:00 AM 61.1237 6.5698 39° Northeast  Level Estimated
Mon 11:41:00 AM 61.1985 6.6962 39° Northeast  Level Estimated
Mon 11:42:00 AM 61.2732 6.8232 39° Northeast  Level Estimated
Mon 11:43:00 AM 61.3478 6.9508 39° Northeast  Level Estimated
Mon 11:44:00 AM 61.4222 7.0790 39° Northeast  Level Estimated
Mon 11:45:00 AM 61.4965 7.2078 40° Northeast  Level Estimated
Mon 11:46:00 AM 61.5707 7.3373 40° Northeast  Level Estimated
Mon 11:47:00 AM 61.6448 7.4673 40° Northeast  Level Estimated
Mon 11:48:00 AM 61.7188 7.5980 40° Northeast  Level Estimated
Mon 11:49:00 AM 61.7926 7.7293 40° Northeast  Level Estimated
Mon 11:50:00 AM 61.8663 7.8612 40° Northeast  Level Estimated
Mon 11:51:00 AM 61.9399 7.9938 40° Northeast  Level Estimated
Mon 11:52:00 AM 62.0133 8.1270 40° Northeast  Level Estimated
Mon 11:53:00 AM 62.0866 8.2609 40° Northeast  Level Estimated
Mon 11:54:00 AM 62.1598 8.3954 41° Northeast  Level Estimated
Mon 11:55:00 AM 62.2329 8.5306 41° Northeast  Level Estimated
Mon 11:56:00 AM 62.3058 8.6664 41° Northeast  Level Estimated
Mon 11:57:00 AM 62.3786 8.8028 41° Northeast  Level Estimated
Mon 11:58:00 AM 62.4512 8.9400 41° Northeast  Level Estimated
Mon 11:59:00 AM 62.5238 9.0778 41° Northeast  Level Estimated
Mon 12:00:00 PM 62.5961 9.2163 41° Northeast  Level Estimated
Mon 12:01:00 PM 62.6684 9.3554 41° Northeast  Level Estimated
Mon 12:02:00 PM 62.7405 9.4952 42° Northeast  Level Estimated
Mon 12:03:00 PM 62.8125 9.6357 42° Northeast  Level Estimated
Mon 12:04:00 PM 62.8843 9.7770 42° Northeast  Level Estimated
Mon 12:05:00 PM 62.9560 9.9188 42° Northeast  Level Estimated
Mon 12:06:00 PM 63.0275 10.0615 42° Northeast  Level Estimated
Mon 12:07:00 PM 63.0989 10.2047 42° Northeast  Level Estimated
Mon 12:08:00 PM 63.1702 10.3487 42° Northeast  Level Estimated
Mon 12:09:00 PM 63.2413 10.4935 42° Northeast  Level Estimated
Mon 12:10:00 PM 63.3122 10.6389 43° Northeast  Level Estimated
Mon 12:11:00 PM 63.3831 10.7850 43° Northeast  Level Estimated
Mon 12:12:00 PM 63.4537 10.9319 43° Northeast  Level Estimated
Mon 12:13:00 PM 63.4576 10.9399 43° Northeast  Level Estimated
Mon 12:14:00 PM 63.4576 10.9399 North  Level Estimated
Mon 12:15:00 PM 63.4576 10.9399 North  Level Estimated
Mon 12:16:00 PM 63.4576 10.9399 North  Level Estimated
Mon 12:17:00 PM 63.4576 10.9399 North  Level Estimated
Mon 12:18:00 PM 63.4576 10.9399 North  Level Estimated
Mon 12:19:00 PM 63.4576 10.9399 North  Level Estimated
Mon 12:20:00 PM 63.4576 10.9399 North  Level Estimated
Mon 12:21:00 PM 63.4576 10.9399 North  Level Estimated

Login

Don't have an account? Register now (free) for customized features, flight alerts, and more!